createdAt,value
2018-03-16T00:00:51.127Z,33.72
2018-03-16T00:01:53.639Z,34.53
2018-03-16T00:02:56.165Z,33.30
2018-03-16T00:03:58.679Z,31.85
2018-03-16T00:05:01.312Z,32.53
2018-03-16T00:06:03.801Z,35.72
2018-03-16T00:07:07.081Z,36.42
2018-03-16T00:08:09.624Z,36.05
2018-03-16T00:09:12.114Z,36.40
2018-03-16T00:10:14.617Z,32.95
2018-03-16T00:11:17.215Z,35.63
2018-03-16T00:12:19.764Z,35.15
2018-03-16T00:13:22.274Z,34.60
2018-03-16T00:14:25.494Z,32.97
2018-03-16T00:15:28.000Z,35.42
2018-03-16T00:16:30.526Z,35.58
2018-03-16T00:17:33.030Z,37.35
2018-03-16T00:18:35.550Z,35.63
2018-03-16T00:19:38.067Z,33.75
2018-03-16T00:20:41.344Z,32.95
2018-03-16T00:21:43.837Z,33.28
2018-03-16T00:22:47.100Z,33.90
2018-03-16T00:23:49.606Z,38.83
2018-03-16T00:24:52.112Z,34.28
2018-03-16T00:25:54.626Z,35.70
2018-03-16T00:26:57.880Z,35.40
2018-03-16T00:28:00.396Z,36.05
2018-03-16T00:29:02.954Z,35.28
2018-03-16T00:30:06.262Z,38.53
2018-03-16T00:31:08.770Z,37.00
2018-03-16T00:32:11.289Z,36.00
2018-03-16T00:33:14.548Z,37.15
2018-03-16T00:34:17.048Z,37.30
2018-03-16T00:35:20.380Z,38.17
2018-03-16T00:36:22.866Z,37.00
2018-03-16T00:37:25.368Z,35.22
2018-03-16T00:38:28.639Z,37.10
2018-03-16T00:39:31.168Z,39.35
2018-03-16T00:40:33.657Z,39.67
2018-03-16T00:41:36.346Z,38.97
2018-03-16T00:42:38.843Z,41.33
2018-03-16T00:43:42.113Z,40.53
2018-03-16T00:44:44.621Z,39.75
2018-03-16T00:45:47.130Z,38.78
2018-03-16T00:46:49.644Z,38.55
2018-03-16T00:47:52.952Z,38.88
2018-03-16T00:48:55.446Z,38.88
2018-03-16T00:49:57.967Z,39.05
2018-03-16T00:51:01.247Z,38.72
2018-03-16T00:52:03.760Z,40.45
2018-03-16T00:53:06.320Z,40.95
2018-03-16T00:54:08.827Z,38.10
2018-03-16T00:55:11.795Z,42.42
2018-03-16T00:56:14.284Z,40.22
2018-03-16T00:57:16.791Z,40.10
2018-03-16T00:58:20.071Z,39.13
2018-03-16T00:59:23.853Z,37.28
2018-03-16T01:00:26.907Z,40.28
2018-03-16T01:01:29.413Z,36.88
2018-03-16T01:02:31.944Z,40.67
2018-03-16T01:03:34.439Z,38.00
2018-03-16T01:04:36.940Z,40.53
2018-03-16T01:05:39.450Z,37.20
2018-03-16T01:06:41.967Z,40.03
2018-03-16T01:07:45.298Z,38.92
2018-03-16T01:08:47.787Z,37.95
2018-03-16T01:09:50.284Z,35.22
2018-03-16T01:10:52.783Z,39.08
2018-03-16T01:11:56.073Z,40.75
2018-03-16T01:12:59.341Z,37.50
2018-03-16T01:14:01.862Z,39.22
2018-03-16T01:15:04.388Z,38.22
2018-03-16T01:16:06.874Z,40.25
2018-03-16T01:17:10.177Z,39.47
2018-03-16T01:18:12.666Z,39.58
2018-03-16T01:19:15.242Z,39.90
2018-03-16T01:20:17.726Z,37.83
2018-03-16T01:21:20.225Z,40.83
2018-03-16T01:22:22.738Z,38.88
2018-03-16T01:23:25.264Z,35.58
2018-03-16T01:24:28.338Z,39.15
2018-03-16T01:25:30.827Z,40.22
2018-03-16T01:26:33.362Z,38.72
2018-03-16T01:27:35.878Z,38.92
2018-03-16T01:28:38.371Z,40.08
2018-03-16T01:29:40.863Z,37.65
2018-03-16T01:30:43.358Z,40.58
2018-03-16T01:31:45.888Z,37.42
2018-03-16T01:32:48.408Z,36.50
2018-03-16T01:33:50.957Z,36.55
2018-03-16T01:34:53.455Z,40.22
2018-03-16T01:35:55.956Z,37.25
2018-03-16T01:36:58.487Z,36.90
2018-03-16T01:38:00.987Z,38.75
2018-03-16T01:39:04.273Z,38.72
2018-03-16T01:40:07.529Z,39.60
2018-03-16T01:41:10.084Z,39.00
2018-03-16T01:42:12.651Z,38.53
2018-03-16T01:43:15.153Z,36.50
2018-03-16T01:44:17.664Z,39.75
2018-03-16T01:45:20.162Z,39.72
2018-03-16T01:46:22.666Z,37.47
2018-03-16T01:47:26.281Z,38.65
2018-03-16T01:48:29.560Z,38.45
2018-03-16T01:49:32.878Z,37.42
2018-03-16T01:50:35.376Z,39.70
2018-03-16T01:51:37.864Z,38.72
2018-03-16T01:52:40.379Z,39.60
2018-03-16T01:53:42.902Z,37.00
2018-03-16T01:54:45.397Z,40.95
2018-03-16T01:55:48.658Z,39.22
2018-03-16T01:56:51.159Z,37.97
2018-03-16T01:57:54.428Z,38.80
2018-03-16T01:58:56.935Z,39.55
2018-03-16T01:59:59.432Z,40.97
2018-03-16T02:01:01.923Z,39.20
2018-03-16T02:02:05.199Z,38.60
2018-03-16T02:03:07.700Z,40.72
2018-03-16T02:04:10.224Z,40.53
2018-03-16T02:05:12.722Z,40.05
2018-03-16T02:06:15.212Z,39.55
2018-03-16T02:07:17.739Z,38.45
2018-03-16T02:08:20.235Z,39.15
2018-03-16T02:09:23.533Z,40.67
2018-03-16T02:10:26.058Z,42.13
2018-03-16T02:11:28.563Z,40.97
2018-03-16T02:12:31.067Z,39.03
2018-03-16T02:13:34.338Z,41.45
2018-03-16T02:14:36.849Z,38.28
2018-03-16T02:15:39.367Z,39.85
2018-03-16T02:16:41.884Z,39.72
2018-03-16T02:17:44.383Z,39.80
2018-03-16T02:18:46.879Z,41.92
2018-03-16T02:19:49.380Z,42.13
2018-03-16T02:20:52.653Z,41.40
2018-03-16T02:21:55.151Z,40.65
2018-03-16T02:22:57.660Z,40.78
2018-03-16T02:24:00.212Z,42.55
2018-03-16T02:25:02.706Z,41.83
2018-03-16T02:26:05.240Z,41.40
2018-03-16T02:27:07.756Z,43.35
2018-03-16T02:28:10.260Z,43.60
2018-03-16T02:29:13.532Z,43.17
2018-03-16T02:30:16.040Z,40.70
2018-03-16T02:31:18.586Z,42.13
2018-03-16T02:32:21.105Z,43.17
2018-03-16T02:33:23.613Z,45.22
2018-03-16T02:34:26.105Z,43.03
2018-03-16T02:35:29.405Z,43.03
2018-03-16T02:36:31.946Z,41.78
2018-03-16T02:37:34.450Z,42.08
2018-03-16T02:38:36.955Z,41.13
2018-03-16T02:39:39.452Z,41.10
2018-03-16T02:40:41.949Z,45.50
2018-03-16T02:41:45.217Z,41.42
2018-03-16T02:42:47.719Z,40.22
2018-03-16T02:43:50.235Z,42.80
2018-03-16T02:44:52.749Z,44.80
2018-03-16T02:45:56.035Z,42.22
2018-03-16T02:46:59.290Z,43.40
2018-03-16T02:48:01.811Z,43.55
2018-03-16T02:49:04.298Z,45.08
2018-03-16T02:50:06.803Z,45.63
2018-03-16T02:51:09.308Z,43.42
2018-03-16T02:52:12.668Z,43.03
2018-03-16T02:53:15.163Z,44.88
2018-03-16T02:54:18.443Z,41.40
2018-03-16T02:55:21.709Z,42.30
2018-03-16T02:56:24.232Z,43.60
2018-03-16T02:57:26.735Z,43.30
2018-03-16T02:58:29.299Z,44.28
2018-03-16T02:59:31.807Z,42.78
2018-03-16T03:00:34.322Z,43.25
2018-03-16T03:01:36.838Z,43.03
2018-03-16T03:02:40.128Z,45.78
2018-03-16T03:03:42.647Z,44.15
2018-03-16T03:04:45.149Z,39.78
2018-03-16T03:05:47.660Z,41.33
2018-03-16T03:06:50.969Z,43.63
2018-03-16T03:07:53.465Z,43.28
2018-03-16T03:08:55.962Z,43.28
2018-03-16T03:09:58.462Z,43.13
2018-03-16T03:11:01.773Z,42.55
2018-03-16T03:12:04.269Z,41.88
2018-03-16T03:13:06.762Z,46.22
2018-03-16T03:14:09.250Z,38.78
2018-03-16T03:15:11.759Z,44.03
2018-03-16T03:16:14.252Z,45.00
2018-03-16T03:17:16.747Z,43.25
2018-03-16T03:18:19.276Z,43.70
2018-03-16T03:19:21.782Z,43.72
2018-03-16T03:20:24.315Z,45.47
2018-03-16T03:21:26.818Z,43.17
2018-03-16T03:22:29.310Z,44.53
2018-03-16T03:23:31.822Z,46.10
2018-03-16T03:24:34.322Z,45.00
2018-03-16T03:25:36.858Z,46.10
2018-03-16T03:26:39.389Z,43.47
2018-03-16T03:27:41.958Z,47.42
2018-03-16T03:28:44.462Z,43.00
2018-03-16T03:29:47.010Z,47.17
2018-03-16T03:30:49.511Z,47.03
2018-03-16T03:31:52.003Z,44.63
2018-03-16T03:32:54.513Z,45.42
2018-03-16T03:33:57.014Z,48.28
2018-03-16T03:34:59.550Z,46.97
2018-03-16T03:36:02.042Z,46.40
2018-03-16T03:37:05.302Z,46.35
2018-03-16T03:38:07.799Z,45.88
2018-03-16T03:39:10.310Z,49.95
2018-03-16T03:40:12.823Z,47.08
2018-03-16T03:41:15.328Z,47.13
2018-03-16T03:42:17.838Z,44.63
2018-03-16T03:43:20.385Z,46.37
2018-03-16T03:44:22.903Z,50.20
2018-03-16T03:45:25.394Z,48.38
2018-03-16T03:46:28.669Z,49.05
2018-03-16T03:47:31.169Z,48.55
2018-03-16T03:48:33.722Z,48.30
2018-03-16T03:49:37.001Z,48.10
2018-03-16T03:50:39.528Z,48.42
2018-03-16T03:51:42.626Z,48.78
2018-03-16T03:52:45.126Z,47.80
2018-03-16T03:53:48.412Z,48.10
2018-03-16T03:54:50.963Z,47.65
2018-03-16T03:55:53.465Z,49.22
2018-03-16T03:56:56.740Z,50.17
2018-03-16T03:57:59.237Z,50.00
2018-03-16T03:59:02.521Z,47.40
2018-03-16T04:00:05.788Z,49.85
2018-03-16T04:01:08.314Z,50.90
2018-03-16T04:02:10.844Z,50.95
2018-03-16T04:03:14.107Z,50.45
2018-03-16T04:04:16.606Z,50.38
2018-03-16T04:05:19.919Z,50.65
2018-03-16T04:06:22.439Z,51.78
2018-03-16T04:07:24.947Z,51.55
2018-03-16T04:08:27.441Z,50.63
2018-03-16T04:09:31.571Z,52.13
2018-03-16T04:10:34.093Z,52.40
2018-03-16T04:11:37.357Z,53.40
2018-03-16T04:12:40.646Z,50.85
2018-03-16T04:13:43.159Z,53.10
2018-03-16T04:14:45.685Z,53.75
2018-03-16T04:15:48.184Z,50.80
2018-03-16T04:16:51.463Z,52.67
2018-03-16T04:17:53.951Z,53.15
2018-03-16T04:18:56.456Z,50.97
2018-03-16T04:19:58.992Z,52.75
2018-03-16T04:21:02.256Z,51.92
2018-03-16T04:22:04.769Z,52.78
2018-03-16T04:23:07.278Z,51.22
2018-03-16T04:24:09.853Z,52.62
2018-03-16T04:25:12.374Z,53.45
2018-03-16T04:26:14.885Z,55.90
2018-03-16T04:27:17.380Z,52.15
2018-03-16T04:28:19.874Z,51.08
2018-03-16T04:29:22.375Z,51.63
2018-03-16T04:30:24.894Z,53.53
2018-03-16T04:31:28.163Z,51.75
2018-03-16T04:32:30.688Z,56.08
2018-03-16T04:33:33.190Z,53.75
2018-03-16T04:34:35.679Z,53.17
2018-03-16T04:35:38.202Z,54.72
2018-03-16T04:36:40.702Z,53.95
2018-03-16T04:37:43.203Z,56.10
2018-03-16T04:38:45.700Z,52.83
2018-03-16T04:39:48.207Z,55.10
2018-03-16T04:40:51.290Z,55.10
2018-03-16T04:41:53.784Z,52.45
2018-03-16T04:42:56.320Z,56.30
2018-03-16T04:43:58.813Z,54.78
2018-03-16T04:45:01.319Z,55.40
2018-03-16T04:46:04.589Z,56.45
2018-03-16T04:47:07.098Z,56.55
2018-03-16T04:48:09.618Z,55.67
2018-03-16T04:49:12.133Z,57.03
2018-03-16T04:50:14.637Z,56.47
2018-03-16T04:51:17.144Z,57.15
2018-03-16T04:52:19.658Z,55.28
2018-03-16T04:53:22.165Z,56.05
2018-03-16T04:54:24.686Z,59.78
2018-03-16T04:55:27.523Z,56.08
2018-03-16T04:56:30.031Z,57.60
2018-03-16T04:57:33.302Z,55.72
2018-03-16T04:58:36.569Z,57.33
2018-03-16T04:59:39.078Z,53.78
2018-03-16T05:00:41.584Z,55.20
2018-03-16T05:01:44.100Z,57.30
2018-03-16T05:02:47.380Z,55.72
2018-03-16T05:03:49.893Z,56.35
2018-03-16T05:04:52.419Z,56.88
2018-03-16T05:05:54.913Z,56.53
2018-03-16T05:06:58.277Z,56.28
2018-03-16T05:08:00.783Z,52.62
2018-03-16T05:09:03.291Z,53.25
2018-03-16T05:10:05.795Z,57.03
2018-03-16T05:11:09.063Z,56.33
2018-03-16T05:12:11.640Z,55.00
2018-03-16T05:13:14.149Z,56.17
2018-03-16T05:14:16.652Z,55.90
2018-03-16T05:15:19.169Z,57.30
2018-03-16T05:16:21.709Z,56.45
2018-03-16T05:17:24.214Z,54.50
2018-03-16T05:18:26.784Z,52.45
2018-03-16T05:19:29.298Z,54.58
2018-03-16T05:20:31.811Z,47.67
2018-03-16T05:21:34.345Z,56.10
2018-03-16T05:22:36.875Z,55.17
2018-03-16T05:23:40.152Z,53.20
2018-03-16T05:24:46.593Z,55.80
2018-03-16T05:25:49.105Z,55.25
2018-03-16T05:26:52.618Z,54.15
2018-03-16T05:27:55.181Z,54.00
2018-03-16T05:28:58.456Z,56.28
2018-03-16T05:30:01.739Z,53.45
2018-03-16T05:31:04.241Z,54.42
2018-03-16T05:32:06.741Z,52.55
2018-03-16T05:33:09.259Z,50.33
2018-03-16T05:34:12.591Z,57.13
2018-03-16T05:35:15.126Z,56.95
2018-03-16T05:36:18.394Z,52.60
2018-03-16T05:37:20.909Z,56.50
2018-03-16T05:38:23.505Z,54.90
2018-03-16T05:39:26.015Z,47.62
2018-03-16T05:40:28.537Z,52.70
2018-03-16T05:41:31.042Z,54.00
2018-03-16T05:42:34.322Z,53.40
2018-03-16T05:43:36.938Z,52.75
2018-03-16T05:44:39.435Z,53.40
2018-03-16T05:45:41.969Z,56.70
2018-03-16T05:46:44.485Z,52.58
2018-03-16T05:47:47.039Z,56.50
2018-03-16T05:48:49.568Z,55.88
2018-03-16T05:49:52.876Z,54.75
2018-03-16T05:50:55.435Z,57.47
2018-03-16T05:51:58.017Z,54.00
2018-03-16T05:53:00.622Z,54.53
2018-03-16T05:54:03.118Z,50.80
2018-03-16T05:55:07.136Z,52.00
2018-03-16T05:56:10.434Z,51.05
2018-03-16T05:57:13.713Z,54.55
2018-03-16T05:58:17.010Z,54.60
2018-03-16T05:59:20.314Z,55.05
2018-03-16T06:00:22.814Z,52.47
2018-03-16T06:01:26.076Z,50.90
2018-03-16T06:02:28.591Z,51.22
2018-03-16T06:03:31.112Z,51.45
2018-03-16T06:04:33.674Z,55.25
2018-03-16T06:05:36.942Z,52.50
2018-03-16T06:06:39.462Z,52.28
2018-03-16T06:07:41.974Z,47.75
2018-03-16T06:08:44.476Z,48.20
2018-03-16T06:09:46.972Z,46.83
2018-03-16T06:10:49.464Z,49.00
2018-03-16T06:11:52.014Z,46.15
2018-03-16T06:12:54.533Z,42.05
2018-03-16T06:13:57.093Z,44.67
2018-03-16T06:14:59.620Z,46.63
2018-03-16T06:16:02.126Z,47.80
2018-03-16T06:17:04.661Z,48.20
2018-03-16T06:18:07.178Z,43.35
2018-03-16T06:19:09.690Z,46.72
2018-03-16T06:20:12.205Z,47.78
2018-03-16T06:21:14.708Z,46.00
2018-03-16T06:22:18.023Z,43.22
2018-03-16T06:23:20.549Z,45.70
2018-03-16T06:24:23.776Z,44.25
2018-03-16T06:25:26.269Z,41.05
2018-03-16T06:26:28.832Z,42.83
2018-03-16T06:27:31.450Z,40.75
2018-03-16T06:28:38.219Z,38.38
2018-03-16T06:29:40.727Z,35.65
2018-03-16T06:30:43.995Z,41.20
2018-03-16T06:31:48.211Z,40.97
2018-03-16T06:32:54.975Z,42.60
2018-03-16T06:33:57.490Z,38.17
2018-03-16T06:34:59.990Z,38.70
2018-03-16T06:36:03.260Z,40.28
2018-03-16T06:37:05.760Z,34.80
2018-03-16T06:38:09.708Z,38.97
2018-03-16T06:39:12.219Z,40.30
2018-03-16T06:40:14.856Z,39.47
2018-03-16T06:41:17.375Z,39.55
2018-03-16T06:42:20.658Z,42.03
2018-03-16T06:43:23.185Z,38.47
2018-03-16T06:44:25.758Z,34.03
2018-03-16T06:45:29.027Z,36.92
2018-03-16T06:46:32.304Z,40.88
2018-03-16T06:47:34.819Z,38.92
2018-03-16T06:48:37.918Z,38.00
2018-03-16T06:49:40.411Z,39.03
2018-03-16T06:50:42.907Z,36.40
2018-03-16T06:51:46.176Z,39.95
2018-03-16T06:52:48.695Z,35.88
2018-03-16T06:53:51.212Z,34.88
2018-03-16T06:54:53.772Z,27.70
2018-03-16T06:55:56.267Z,35.88
2018-03-16T06:56:59.533Z,33.92
2018-03-16T06:58:02.822Z,36.28
2018-03-16T06:59:06.019Z,38.17
2018-03-16T07:00:08.517Z,35.83
2018-03-16T07:01:11.946Z,36.53
2018-03-16T07:02:14.455Z,35.70
2018-03-16T07:03:17.765Z,34.47
2018-03-16T07:04:21.052Z,36.30
2018-03-16T07:05:24.436Z,39.42
2018-03-16T07:06:27.716Z,40.83
2018-03-16T07:07:30.210Z,39.95
2018-03-16T07:08:32.762Z,40.67
2018-03-16T07:09:35.249Z,45.22
2018-03-16T07:10:38.522Z,44.63
2018-03-16T07:11:41.792Z,44.63
2018-03-16T07:12:44.298Z,46.00
2018-03-16T07:13:46.802Z,45.08
2018-03-16T07:14:49.314Z,51.80
2018-03-16T07:15:52.595Z,48.60
2018-03-16T07:16:55.097Z,51.37
2018-03-16T07:17:58.391Z,49.35
2018-03-16T07:19:01.692Z,48.87
2018-03-16T07:20:04.209Z,47.33
2018-03-16T07:21:06.714Z,54.60
2018-03-16T07:22:10.034Z,46.15
2018-03-16T07:23:13.338Z,53.50
2018-03-16T07:24:15.852Z,49.20
2018-03-16T07:25:19.975Z,52.85
2018-03-16T07:26:22.495Z,51.13
2018-03-16T07:27:25.010Z,50.85
2018-03-16T07:28:27.555Z,52.33
2018-03-16T07:29:30.058Z,51.88
2018-03-16T07:30:32.577Z,51.35
2018-03-16T07:31:35.102Z,50.20
2018-03-16T07:32:37.637Z,50.95
2018-03-16T07:33:40.138Z,47.70
2018-03-16T07:34:43.409Z,53.28
2018-03-16T07:35:46.711Z,49.58
2018-03-16T07:36:49.993Z,49.40
2018-03-16T07:37:53.262Z,49.72
2018-03-16T07:38:55.756Z,53.05
2018-03-16T07:39:59.038Z,52.08
2018-03-16T07:41:02.427Z,50.53
2018-03-16T07:42:05.692Z,51.25
2018-03-16T07:43:08.203Z,49.20
2018-03-16T07:44:10.732Z,50.92
2018-03-16T07:45:13.284Z,44.97
2018-03-16T07:46:16.600Z,49.03
2018-03-16T07:47:19.109Z,47.45
2018-03-16T07:48:21.693Z,50.92
2018-03-16T07:49:24.206Z,48.38
2018-03-16T07:50:26.748Z,49.63
2018-03-16T07:51:29.249Z,49.40
2018-03-16T07:52:31.751Z,47.38
2018-03-16T07:53:35.470Z,49.50
2018-03-16T07:54:37.975Z,51.28
2018-03-16T07:55:40.485Z,48.83
2018-03-16T07:56:43.772Z,47.58
2018-03-16T07:57:47.416Z,47.17
2018-03-16T07:58:49.924Z,50.30
2018-03-16T07:59:52.423Z,47.58
2018-03-16T08:00:55.704Z,49.05
2018-03-16T08:01:58.973Z,48.78
2018-03-16T08:03:01.478Z,46.88
2018-03-16T08:04:03.975Z,50.20
2018-03-16T08:05:06.471Z,49.53
2018-03-16T08:06:08.972Z,52.83
2018-03-16T08:07:13.195Z,47.15
2018-03-16T08:08:15.692Z,48.85
2018-03-16T08:09:18.195Z,50.70
2018-03-16T08:10:22.217Z,50.67
2018-03-16T08:11:25.515Z,47.45
2018-03-16T08:12:28.800Z,50.47
2018-03-16T08:13:32.080Z,45.12
2018-03-16T08:14:34.580Z,46.97
2018-03-16T08:15:37.069Z,45.00
2018-03-16T08:16:39.603Z,48.45
2018-03-16T08:17:42.874Z,47.50
2018-03-16T08:18:46.157Z,52.35
2018-03-16T08:19:49.420Z,49.85
2018-03-16T08:20:52.011Z,49.25
2018-03-16T08:21:54.533Z,47.70
2018-03-16T08:22:57.024Z,45.60
2018-03-16T08:23:59.548Z,47.45
2018-03-16T08:25:02.852Z,40.83
2018-03-16T08:26:05.380Z,47.47
2018-03-16T08:27:07.875Z,44.75
2018-03-16T08:28:11.357Z,43.63
2018-03-16T08:29:13.809Z,46.50
2018-03-16T08:30:16.300Z,45.17
2018-03-16T08:31:18.808Z,41.78
2018-03-16T08:32:21.334Z,44.88
2018-03-16T08:33:23.849Z,41.67
2018-03-16T08:34:26.344Z,41.60
2018-03-16T08:35:28.850Z,42.85
2018-03-16T08:36:31.347Z,40.88
2018-03-16T08:37:33.865Z,41.45
2018-03-16T08:38:36.357Z,43.20
2018-03-16T08:39:38.844Z,39.45
2018-03-16T08:40:42.115Z,40.65
2018-03-16T08:41:44.633Z,42.00
2018-03-16T08:42:47.159Z,40.03
2018-03-16T08:43:49.766Z,39.25
2018-03-16T08:44:52.258Z,34.35
2018-03-16T08:45:54.791Z,37.28
2018-03-16T08:46:57.307Z,36.47
2018-03-16T08:47:59.806Z,39.88
2018-03-16T08:49:02.309Z,39.05
2018-03-16T08:50:04.817Z,36.70
2018-03-16T08:51:07.352Z,37.55
2018-03-16T08:52:10.686Z,39.45
2018-03-16T08:53:13.277Z,37.03
2018-03-16T08:54:15.799Z,36.95
2018-03-16T08:55:18.284Z,34.45
2018-03-16T08:56:20.805Z,33.08
2018-03-16T08:57:24.075Z,38.92
2018-03-16T08:58:26.689Z,34.70
2018-03-16T08:59:29.196Z,35.88
2018-03-16T09:00:31.704Z,36.05
2018-03-16T09:01:34.967Z,37.05
2018-03-16T09:02:37.494Z,31.92
2018-03-16T09:03:40.005Z,32.95
2018-03-16T09:04:42.501Z,31.27
2018-03-16T09:05:45.779Z,34.38
2018-03-16T09:06:48.281Z,31.80
2018-03-16T09:07:50.826Z,35.22
2018-03-16T09:08:54.101Z,36.47
2018-03-16T09:09:56.612Z,36.05
2018-03-16T09:10:59.115Z,34.67
2018-03-16T09:12:01.622Z,31.45
2018-03-16T09:13:04.916Z,37.08
2018-03-16T09:14:07.472Z,33.90
2018-03-16T09:15:10.089Z,36.28
2018-03-16T09:16:12.702Z,32.72
2018-03-16T09:17:15.233Z,34.80
2018-03-16T09:18:17.737Z,33.75
2018-03-16T09:19:20.284Z,34.63
2018-03-16T09:20:22.798Z,30.52
2018-03-16T09:21:25.331Z,35.80
2018-03-16T09:22:27.853Z,32.75
2018-03-16T09:23:30.345Z,33.85
2018-03-16T09:24:33.762Z,33.10
2018-03-16T09:25:37.454Z,31.17
2018-03-16T09:26:40.017Z,32.58
2018-03-16T09:27:42.554Z,31.58
2018-03-16T09:28:45.048Z,30.90
2018-03-16T09:29:48.393Z,31.95
2018-03-16T09:30:50.899Z,32.60
2018-03-16T09:31:54.201Z,34.10
2018-03-16T09:32:56.718Z,28.52
2018-03-16T09:33:59.250Z,29.35
2018-03-16T09:35:01.752Z,28.10
2018-03-16T09:36:04.259Z,30.70
2018-03-16T09:37:07.551Z,29.87
2018-03-16T09:38:10.900Z,29.67
2018-03-16T09:39:13.453Z,30.40
2018-03-16T09:40:15.991Z,25.52
2018-03-16T09:41:19.299Z,29.67
2018-03-16T09:42:21.815Z,26.10
2018-03-16T09:43:25.134Z,27.90
2018-03-16T09:44:27.649Z,24.48
2018-03-16T09:45:30.138Z,29.45
2018-03-16T09:46:32.636Z,25.77
2018-03-16T09:47:35.888Z,22.75
2018-03-16T09:48:38.392Z,26.67
2018-03-16T09:49:40.896Z,26.23
2018-03-16T09:50:43.394Z,27.85
2018-03-16T09:51:45.896Z,23.12
2018-03-16T09:52:49.196Z,24.75
2018-03-16T09:53:51.707Z,25.67
2018-03-16T09:55:06.089Z,24.45
2018-03-16T09:56:08.579Z,22.65
2018-03-16T09:57:11.704Z,25.33
2018-03-16T09:58:14.878Z,27.13
2018-03-16T09:59:18.162Z,27.55
2018-03-16T10:00:21.434Z,27.05
2018-03-16T10:01:23.925Z,26.55
2018-03-16T10:02:27.893Z,27.85
2018-03-16T10:03:30.409Z,29.00
2018-03-16T10:04:33.688Z,28.35
2018-03-16T10:05:36.960Z,28.30
2018-03-16T10:06:39.455Z,27.85
2018-03-16T10:07:42.719Z,27.50
2018-03-16T10:08:45.987Z,27.27
2018-03-16T10:22:53.520Z,16.60
2018-03-16T10:23:56.026Z,18.15
2018-03-16T10:24:59.275Z,19.30
2018-03-16T10:26:02.759Z,20.77
2018-03-16T10:27:05.274Z,18.95
2018-03-16T10:28:08.554Z,17.17
2018-03-16T10:29:11.154Z,17.27
2018-03-16T10:30:13.746Z,18.87
2018-03-16T10:31:16.248Z,20.70
2018-03-16T10:32:18.748Z,18.98
2018-03-16T10:33:22.026Z,18.83
2018-03-16T10:34:24.542Z,18.58
2018-03-16T10:35:27.068Z,19.70
2018-03-16T10:36:30.613Z,13.82
2018-03-16T10:37:33.092Z,15.45
2018-03-16T10:38:36.356Z,19.05
2018-03-16T10:39:38.872Z,18.05
2018-03-16T10:40:41.387Z,19.37
2018-03-16T10:41:44.680Z,18.02
2018-03-16T10:42:47.188Z,18.45
2018-03-16T10:43:49.689Z,18.12
2018-03-16T10:44:52.204Z,19.90
2018-03-16T10:45:54.708Z,19.17
2018-03-16T10:46:57.226Z,18.95
2018-03-16T10:47:59.735Z,19.17
2018-03-16T10:49:02.282Z,19.55
2018-03-16T10:50:05.505Z,18.83
2018-03-16T10:51:08.007Z,19.27
2018-03-16T10:52:10.686Z,18.83
2018-03-16T10:53:13.968Z,18.52
2018-03-16T10:54:17.395Z,19.12
2018-03-16T10:55:20.639Z,19.10
2018-03-16T10:56:23.142Z,17.05
2018-03-16T10:57:25.658Z,17.75
2018-03-16T10:58:28.157Z,17.85
2018-03-16T10:59:31.439Z,19.42
2018-03-16T11:00:39.735Z,17.17
2018-03-16T11:01:48.677Z,19.08
2018-03-16T11:02:51.941Z,19.50
2018-03-16T11:03:54.458Z,16.70
2018-03-16T11:05:02.753Z,18.85
2018-03-16T11:06:06.028Z,20.05
2018-03-16T11:07:08.547Z,20.50
2018-03-16T11:08:11.164Z,17.27
2018-03-16T11:09:13.720Z,19.40
2018-03-16T11:10:16.355Z,19.00
2018-03-16T11:11:18.860Z,16.67
2018-03-16T11:12:21.364Z,17.62
2018-03-16T11:13:24.622Z,18.83
2018-03-16T11:14:27.127Z,19.85
2018-03-16T11:15:30.462Z,17.98
2018-03-16T11:16:32.979Z,21.48
2018-03-16T11:17:36.259Z,17.12
2018-03-16T11:18:38.879Z,21.02
2018-03-16T11:19:41.388Z,17.15
2018-03-16T11:20:43.909Z,19.83
2018-03-16T11:21:46.412Z,18.35
2018-03-16T11:22:48.923Z,19.02
2018-03-16T11:23:52.247Z,20.15
2018-03-16T11:24:54.775Z,20.27
2018-03-16T11:25:57.324Z,19.95
2018-03-16T11:26:59.844Z,20.77
2018-03-16T11:28:02.346Z,21.17
2018-03-16T11:29:04.852Z,22.05
2018-03-16T11:30:07.373Z,20.30
2018-03-16T11:31:10.369Z,20.58
2018-03-16T11:32:12.943Z,21.37
2018-03-16T11:33:21.547Z,17.08
2018-03-16T11:34:24.077Z,20.27
2018-03-16T11:35:27.358Z,20.48
2018-03-16T11:36:30.614Z,19.70
2018-03-16T11:37:33.147Z,19.17
2018-03-16T11:38:36.386Z,22.10
2018-03-16T11:39:38.919Z,18.12
2018-03-16T11:40:41.426Z,20.90
2018-03-16T11:41:43.942Z,19.17
2018-03-16T11:42:46.438Z,21.12
2018-03-16T11:43:49.747Z,17.67
2018-03-16T11:44:52.243Z,19.15
2018-03-16T11:45:54.751Z,14.45
2018-03-16T11:46:57.250Z,18.45
2018-03-16T11:47:59.744Z,17.83
2018-03-16T11:49:02.274Z,19.37
2018-03-16T11:50:04.796Z,16.85
2018-03-16T11:51:07.330Z,17.00
2018-03-16T11:52:09.970Z,17.80
2018-03-16T11:53:12.753Z,17.17
2018-03-16T11:54:15.285Z,17.65
2018-03-16T11:55:18.566Z,17.50
2018-03-16T11:56:21.080Z,16.77
2018-03-16T11:57:24.304Z,18.35
2018-03-16T11:58:26.805Z,17.55
2018-03-16T11:59:30.124Z,17.55
2018-03-16T12:00:32.630Z,16.67
2018-03-16T12:01:35.139Z,17.65
2018-03-16T12:02:38.401Z,17.08
2018-03-16T12:03:40.905Z,17.95
2018-03-16T12:04:44.170Z,18.33
2018-03-16T12:05:46.688Z,17.15
2018-03-16T12:06:49.228Z,15.60
2018-03-16T12:07:52.482Z,15.63
2018-03-16T12:08:54.979Z,14.80
2018-03-16T12:09:58.376Z,16.27
2018-03-16T12:11:01.666Z,16.52
2018-03-16T12:12:04.925Z,16.10
2018-03-16T12:13:07.454Z,14.70
2018-03-16T12:14:10.116Z,15.00
2018-03-16T12:15:12.842Z,14.95
2018-03-16T12:16:15.377Z,17.35
2018-03-16T12:17:17.891Z,15.13
2018-03-16T12:18:21.899Z,16.80
2018-03-16T12:19:24.399Z,16.75
2018-03-16T12:20:27.801Z,16.95
2018-03-16T12:21:30.299Z,16.75
2018-03-16T12:22:32.792Z,17.23
2018-03-16T12:23:35.289Z,16.65
2018-03-16T12:24:38.557Z,15.57
2018-03-16T12:25:41.087Z,14.65
2018-03-16T12:26:43.599Z,15.60
2018-03-16T12:27:46.107Z,14.30
2018-03-16T12:28:50.014Z,15.77
2018-03-16T12:29:51.157Z,13.48
2018-03-16T12:30:53.718Z,15.75
2018-03-16T12:31:56.240Z,15.32
2018-03-16T12:32:58.768Z,13.07
2018-03-16T12:34:01.277Z,14.20
2018-03-16T12:35:03.786Z,14.68
2018-03-16T12:36:07.061Z,16.95
2018-03-16T12:37:09.556Z,17.10
2018-03-16T12:38:12.150Z,16.17
2018-03-16T12:39:14.667Z,16.60
2018-03-16T12:40:17.186Z,15.60
2018-03-16T12:41:19.693Z,17.05
2018-03-16T12:42:23.036Z,16.40
2018-03-16T12:43:25.538Z,18.02
2018-03-16T12:44:28.046Z,17.12
2018-03-16T12:45:30.540Z,16.12
2018-03-16T12:46:33.068Z,17.87
2018-03-16T12:47:35.582Z,16.70
2018-03-16T12:48:38.147Z,17.37
2018-03-16T12:49:41.413Z,18.52
2018-03-16T12:50:43.903Z,16.17
2018-03-16T12:51:47.169Z,19.67
2018-03-16T12:52:49.672Z,15.30
2018-03-16T12:53:52.186Z,17.23
2018-03-16T12:54:54.699Z,16.50
2018-03-16T12:55:57.973Z,14.73
2018-03-16T12:57:01.256Z,18.92
2018-03-16T12:58:03.765Z,19.02
2018-03-16T12:59:06.330Z,16.90
2018-03-16T13:00:08.842Z,16.50
2018-03-16T13:01:11.381Z,15.85
2018-03-16T13:02:13.907Z,17.27
2018-03-16T13:03:16.444Z,15.75
2018-03-16T13:04:18.987Z,18.50
2018-03-16T13:05:21.499Z,18.40
2018-03-16T13:06:24.008Z,17.20
2018-03-16T13:07:27.287Z,19.37
2018-03-16T13:08:31.062Z,17.30
2018-03-16T13:09:33.597Z,13.88
2018-03-16T13:10:36.106Z,19.23
2018-03-16T13:11:39.415Z,16.83
2018-03-16T13:12:42.681Z,17.67
2018-03-16T13:13:45.206Z,16.25
2018-03-16T13:14:47.728Z,14.15
2018-03-16T13:15:50.220Z,17.48
2018-03-16T13:16:53.510Z,17.20
2018-03-16T13:17:56.796Z,17.48
2018-03-16T13:19:00.107Z,18.25
2018-03-16T13:20:02.624Z,14.52
2018-03-16T13:21:05.124Z,17.35
2018-03-16T13:22:08.396Z,17.42
2018-03-16T13:23:11.031Z,18.60
2018-03-16T13:24:13.568Z,17.30
2018-03-16T13:25:16.857Z,18.80
2018-03-16T13:26:19.371Z,17.75
2018-03-16T13:27:21.906Z,18.75
2018-03-16T13:28:24.437Z,15.45
2018-03-16T13:29:26.964Z,18.42
2018-03-16T13:30:29.544Z,15.35
2018-03-16T13:31:32.040Z,15.77
2018-03-16T13:32:34.536Z,16.80
2018-03-16T13:33:37.037Z,16.27
2018-03-16T13:34:39.542Z,19.05
2018-03-16T13:35:42.066Z,19.37
2018-03-16T13:36:44.600Z,13.18
2018-03-16T13:37:47.094Z,15.70
2018-03-16T13:38:50.384Z,15.73
2018-03-16T13:39:53.670Z,19.20
2018-03-16T13:40:56.960Z,17.90
2018-03-16T13:42:00.223Z,19.90